Time;durP1;ratioP1;P1;durP2;ratioP2;P2;SDS_P1;SDS_P2;PMS_P1;PMS_P2;Temp;Humidity;BMP_temperature;BMP_pressure;BME280_temperature;BME280_humidity;BME280_pressure;Samples;Min_cycle;Max_cycle;Signal;HPM_P1;HPM_P2
2023/03/24 07:31:36;;;;;;;5.72;2.40;;;14.50;99.90;;;;;;6825880;23;20089;-77
2023/03/24 07:34:38;;;;;;;6.32;2.50;;;14.50;99.90;;;;;;6178519;28;20047;-77
2023/03/24 07:37:40;;;;;;;3.58;2.03;;;14.40;99.90;;;;;;6178667;28;20053;-78
2023/03/24 07:40:42;;;;;;;4.40;2.33;;;14.40;99.90;;;;;;6161184;28;20062;-78
2023/03/24 07:43:44;;;;;;;5.55;2.60;;;14.40;99.90;;;;;;6154352;29;20047;-77
2023/03/24 07:46:48;;;;;;;4.88;2.80;;;14.30;99.90;;;;;;6154174;29;20051;-78
2023/03/24 07:49:49;;;;;;;6.35;2.78;;;14.20;99.90;;;;;;6137685;29;20058;-77
2023/03/24 07:52:51;;;;;;;4.80;2.80;;;14.20;99.90;;;;;;6130093;29;20194;-78
2023/03/24 07:55:53;;;;;;;6.03;2.92;;;14.20;99.90;;;;;;6129985;29;20141;-78
2023/03/24 07:58:56;;;;;;;5.38;2.90;;;14.20;99.90;;;;;;6130174;29;20054;-76
2023/03/24 08:01:59;;;;;;;6.28;3.00;;;14.20;99.90;;;;;;6129597;29;20052;-78
2023/03/24 08:05:01;;;;;;;5.40;2.72;;;14.20;99.90;;;;;;6149813;29;20055;-77
2023/03/24 08:08:05;;;;;;;5.57;2.70;;;14.20;99.90;;;;;;6149014;29;20040;-80
2023/03/24 08:11:07;;;;;;;5.82;3.20;;;14.20;99.90;;;;;;6129649;29;20059;-77
2023/03/24 08:14:09;;;;;;;5.72;3.00;;;14.20;99.90;;;;;;6129817;29;20481;-77
2023/03/24 08:17:12;;;;;;;5.47;3.28;;;14.20;99.90;;;;;;6129907;29;20405;-77
2023/03/24 08:20:14;;;;;;;5.68;3.00;;;14.20;99.90;;;;;;6129711;29;20055;-79
2023/03/24 08:23:16;;;;;;;5.45;3.28;;;14.20;99.90;;;;;;6130308;29;20122;-76
2023/03/24 08:26:18;;;;;;;5.50;3.20;;;14.20;99.90;;;;;;6128862;29;20058;-77
2023/03/24 08:29:20;;;;;;;7.78;3.75;;;14.20;99.90;;;;;;6129426;29;20067;-78
2023/03/24 08:32:25;;;;;;;5.32;3.25;;;14.20;99.90;;;;;;6134358;28;20512;-77
2023/03/24 08:35:30;;;;;;;6.07;3.50;;;14.10;99.90;;;;;;6153122;29;20055;-78
2023/03/24 08:38:32;;;;;;;8.65;3.50;;;14.10;99.90;;;;;;6154523;28;20428;-78
2023/03/24 08:41:34;;;;;;;7.30;3.58;;;14.00;99.90;;;;;;6180000;28;20571;-77
2023/03/24 08:44:36;;;;;;;7.78;3.53;;;14.10;99.90;;;;;;6179057;28;20401;-79
2023/03/24 08:47:40;;;;;;;6.18;3.35;;;14.10;99.90;;;;;;6168260;28;20053;-77
2023/03/24 08:50:42;;;;;;;6.82;3.80;;;14.10;99.90;;;;;;6153177;29;20062;-78
2023/03/24 08:53:44;;;;;;;6.10;3.58;;;14.20;99.90;;;;;;6142597;29;20043;-78
2023/03/24 08:56:46;;;;;;;7.20;3.42;;;14.20;99.90;;;;;;6130306;29;20144;-77
2023/03/24 08:59:48;;;;;;;5.07;2.67;;;14.00;99.90;;;;;;6152439;29;20065;-78
2023/03/24 09:02:54;;;;;;;5.93;2.83;;;13.90;99.90;;;;;;6152960;29;20054;-77
2023/03/24 09:05:57;;;;;;;5.40;2.50;;;13.90;99.90;;;;;;6153969;29;20049;-77
2023/03/24 09:08:59;;;;;;;5.03;2.50;;;14.00;99.90;;;;;;6146042;29;20060;-79
2023/03/24 09:12:01;;;;;;;4.60;2.38;;;14.10;99.90;;;;;;6131798;29;20093;-78
2023/03/24 09:15:05;;;;;;;3.53;1.92;;;14.20;99.90;;;;;;6129143;29;20055;-76
2023/03/24 09:18:09;;;;;;;4.10;1.90;;;14.30;99.90;;;;;;6129543;29;20056;-75
2023/03/24 09:21:11;;;;;;;3.40;1.73;;;14.40;99.90;;;;;;6129771;29;20051;-79
2023/03/24 09:24:13;;;;;;;3.20;1.58;;;14.40;99.90;;;;;;6149819;29;20047;-77
2023/03/24 09:27:16;;;;;;;3.10;1.60;;;14.50;99.90;;;;;;6132205;29;20405;-78
2023/03/24 09:30:18;;;;;;;3.35;1.60;;;14.60;99.90;;;;;;6129160;29;20142;-76
2023/03/24 09:33:22;;;;;;;2.90;1.42;;;14.80;99.90;;;;;;6132063;29;20580;-78
2023/03/24 09:36:24;;;;;;;2.65;1.30;;;14.80;99.90;;;;;;6136135;29;20043;-79
2023/03/24 09:39:26;;;;;;;2.28;1.15;;;14.90;99.90;;;;;;6136012;29;20412;-76
2023/03/24 09:42:33;;;;;;;2.15;1.10;;;15.00;99.90;;;;;;6131042;29;20059;-76
2023/03/24 09:45:47;;;;;;;2.92;1.20;;;15.00;99.90;;;;;;6151842;29;20400;-77
2023/03/24 09:48:53;;;;;;;2.72;1.20;;;15.20;99.90;;;;;;6152875;29;20047;-79
2023/03/24 09:52:03;;;;;;;2.08;1.10;;;15.30;99.90;;;;;;6147536;29;20564;-79
2023/03/24 09:55:10;;;;;;;2.67;1.15;;;15.40;99.90;;;;;;6129306;29;20054;-78
2023/03/24 09:58:13;;;;;;;2.30;1.00;;;15.40;99.90;;;;;;6129309;29;20496;-77
2023/03/24 10:01:17;;;;;;;2.22;0.95;;;15.50;99.90;;;;;;6130627;29;20051;-79
2023/03/24 10:04:25;;;;;;;1.90;0.80;;;15.50;98.90;;;;;;6129786;29;20043;-77
2023/03/24 10:07:34;;;;;;;3.30;1.10;;;15.60;98.30;;;;;;6137730;29;20087;-77
2023/03/24 10:10:57;;;;;;;2.42;1.00;;;15.70;98.20;;;;;;6128709;29;20051;-79
2023/03/24 10:14:08;;;;;;;;;;;15.80;98.00;;;;;;6128026;29;20048;-79
2023/03/24 10:17:20;;;;;;;2.67;1.00;;;15.90;97.20;;;;;;6127088;29;19922;-77
2023/03/24 10:20:32;;;;;;;2.50;1.00;;;16.00;97.00;;;;;;6127502;29;20047;-77
2023/03/24 10:23:40;;;;;;;1.70;0.90;;;16.10;96.40;;;;;;6127266;29;20051;-80
2023/03/24 10:26:49;;;;;;;2.13;0.88;;;16.20;96.60;;;;;;6144231;29;20054;-78
2023/03/24 10:29:59;;;;;;;2.45;1.00;;;16.20;96.50;;;;;;6130495;29;20058;-80
2023/03/24 10:33:02;;;;;;;3.60;0.90;;;16.20;96.30;;;;;;6148316;28;20142;-80
2023/03/24 10:36:09;;;;;;;2.45;0.88;;;16.30;95.90;;;;;;6148564;29;20497;-80
2023/03/24 10:39:16;;;;;;;2.30;0.90;;;16.40;95.80;;;;;;6150717;29;20047;-79
2023/03/24 10:42:24;;;;;;;1.95;0.98;;;16.50;95.60;;;;;;6150923;29;20485;-78
2023/03/24 10:45:29;;;;;;;2.42;0.82;;;16.50;95.50;;;;;;6150574;29;20469;-81
2023/03/24 10:48:42;;;;;;;2.30;1.00;;;16.50;95.90;;;;;;6151412;28;20050;-78
2023/03/24 10:51:49;;;;;;;3.10;0.98;;;16.50;95.90;;;;;;6154361;29;20043;-80
2023/03/24 10:54:56;;;;;;;4.85;2.20;;;16.50;95.90;;;;;;6149849;29;20391;-78
2023/03/24 10:58:00;;;;;;;10.40;5.50;;;16.40;95.60;;;;;;6148892;29;20504;-79
2023/03/24 11:01:05;;;;;;;3.33;0.98;;;16.30;95.50;;;;;;6153748;29;20053;-80
2023/03/24 11:04:12;;;;;;;3.40;1.00;;;16.20;95.70;;;;;;6137162;29;20048;-78
2023/03/24 11:07:19;;;;;;;2.20;0.82;;;16.20;95.70;;;;;;6132521;29;20054;-80
2023/03/24 11:10:26;;;;;;;2.63;0.95;;;16.10;95.80;;;;;;6153960;28;20054;-81
2023/03/24 11:13:31;;;;;;;2.17;0.90;;;16.10;95.80;;;;;;6182982;28;20050;-79
2023/03/24 11:16:43;;;;;;;3.33;0.85;;;16.20;95.40;;;;;;6180009;28;20049;-79
2023/03/24 11:19:53;;;;;;;2.15;0.80;;;16.20;95.00;;;;;;6178917;28;20050;-78
2023/03/24 11:23:03;;;;;;;2.10;0.80;;;16.20;95.20;;;;;;6179210;28;20053;-79
2023/03/24 11:26:14;;;;;;;2.03;0.80;;;16.20;95.50;;;;;;6178530;28;20178;-79
2023/03/24 11:29:20;;;;;;;2.67;0.70;;;16.10;95.10;;;;;;6178824;28;20058;-80
2023/03/24 11:32:25;;;;;;;2.88;0.90;;;16.00;95.10;;;;;;6178553;28;20059;-80
2023/03/24 11:35:30;;;;;;;1.77;0.75;;;16.10;95.70;;;;;;6178757;28;20178;-78
2023/03/24 11:38:35;;;;;;;2.25;0.85;;;16.10;95.40;;;;;;6178592;28;20053;-79
2023/03/24 11:41:40;;;;;;;2.80;0.88;;;16.30;94.90;;;;;;6178564;28;20051;-79
2023/03/24 11:44:47;;;;;;;1.73;0.90;;;16.40;94.60;;;;;;6178316;28;20404;-80
2023/03/24 11:47:52;;;;;;;2.05;0.80;;;16.30;93.80;;;;;;6178516;28;20087;-79
2023/03/24 11:50:57;;;;;;;2.22;0.77;;;16.40;93.30;;;;;;6178320;28;20061;-79
2023/03/24 11:54:06;;;;;;;1.27;0.63;;;16.50;93.10;;;;;;6178446;28;20054;-80
2023/03/24 11:57:13;;;;;;;1.40;0.55;;;16.50;93.30;;;;;;6178187;28;20074;-80
2023/03/24 12:00:23;;;;;;;2.58;1.27;;;16.40;92.70;;;;;;6178279;28;20047;-79
2023/03/24 12:03:56;;;;;;;2.83;1.25;;;16.40;92.90;;;;;;6177823;28;20047;-80
2023/03/24 12:07:24;;;;;;;2.00;0.80;;;16.30;93.20;;;;;;6177944;28;20051;-79
2023/03/24 12:10:49;;;;;;;1.77;0.60;;;16.30;93.40;;;;;;6178550;28;20408;-79
2023/03/24 12:13:52;;;;;;;1.67;0.70;;;16.20;93.40;;;;;;6184118;28;20050;-80
2023/03/24 12:17:04;;;;;;;1.48;0.65;;;16.10;93.50;;;;;;6186364;28;20051;-80
2023/03/24 12:20:21;;;;;;;2.67;0.77;;;16.10;93.50;;;;;;6183877;28;20059;-80
2023/03/24 12:23:32;;;;;;;2.08;0.70;;;16.20;93.40;;;;;;6180893;28;20404;-81
2023/03/24 12:26:35;;;;;;;1.65;0.65;;;16.20;93.30;;;;;;6177679;28;20058;-80
2023/03/24 12:29:54;;;;;;;1.95;0.70;;;16.20;93.40;;;;;;6177716;28;20054;-79
2023/03/24 12:33:14;;;;;;;1.58;0.60;;;16.20;93.40;;;;;;6177343;28;20057;-79
2023/03/24 12:36:30;;;;;;;1.70;0.63;;;15.90;93.30;;;;;;6178152;28;20496;-79
2023/03/24 12:39:36;;;;;;;0.88;0.50;;;16.00;93.20;;;;;;6180686;28;20051;-80
2023/03/24 12:42:42;;;;;;;1.00;0.50;;;15.90;93.10;;;;;;6181485;28;20055;-80
2023/03/24 12:45:48;;;;;;;1.30;0.50;;;15.90;92.90;;;;;;6177687;28;20050;-80
2023/03/24 12:49:14;;;;;;;4.75;1.80;;;15.90;92.70;;;;;;6177453;28;20051;-79
2023/03/24 12:52:41;;;;;;;5.38;2.55;;;16.00;92.20;;;;;;6180430;28;20078;-79
2023/03/24 12:55:49;;;;;;;1.48;0.40;;;16.20;91.50;;;;;;6182834;28;20051;-79
2023/03/24 12:58:58;;;;;;;1.15;0.40;;;16.20;91.30;;;;;;6190653;28;20054;-78
2023/03/24 13:02:18;;;;;;;1.58;0.45;;;16.60;90.90;;;;;;6194368;28;20358;-79
2023/03/24 13:05:25;;;;;;;0.82;0.30;;;16.90;89.90;;;;;;6183446;28;20392;-79
2023/03/24 13:08:29;;;;;;;1.13;0.50;;;16.90;89.60;;;;;;6164938;28;20048;-81
2023/03/24 13:11:40;;;;;;;2.05;0.40;;;16.80;88.70;;;;;;6148026;28;20050;-78
2023/03/24 13:14:55;;;;;;;0.52;0.30;;;16.70;89.80;;;;;;6148474;29;20055;-81
2023/03/24 13:18:12;;;;;;;1.10;0.35;;;16.70;90.10;;;;;;6137718;29;20060;-79
2023/03/24 13:21:17;;;;;;;0.32;0.20;;;16.80;89.60;;;;;;6125576;29;20051;-79
2023/03/24 13:24:20;;;;;;;0.95;0.43;;;16.70;89.10;;;;;;6125129;29;20052;-81
2023/03/24 13:27:25;;;;;;;0.50;0.20;;;16.50;90.00;;;;;;6141383;29;20077;-79
2023/03/24 13:30:38;;;;;;;0.52;0.22;;;16.40;90.10;;;;;;6130079;28;20387;-79
2023/03/24 13:33:43;;;;;;;0.93;0.35;;;16.40;89.70;;;;;;6152853;29;20052;-80
2023/03/24 13:36:51;;;;;;;1.08;0.40;;;16.40;90.00;;;;;;6143794;29;20056;-78
2023/03/24 13:39:57;;;;;;;0.90;0.30;;;16.20;90.10;;;;;;6126158;29;20058;-78
2023/03/24 13:43:07;;;;;;;1.10;0.40;;;16.20;90.20;;;;;;6140564;29;20413;-79
2023/03/24 13:46:13;;;;;;;0.60;0.28;;;16.10;89.70;;;;;;6128610;29;20051;-79
2023/03/24 13:49:16;;;;;;;0.75;0.30;;;16.00;90.10;;;;;;6126545;29;20059;-81
2023/03/24 13:52:28;;;;;;;0.73;0.40;;;15.90;90.10;;;;;;6144492;29;20058;-81
2023/03/24 13:55:35;;;;;;;2.27;0.80;;;15.80;90.20;;;;;;6147828;29;20051;-78
2023/03/24 13:59:05;;;;;;;0.98;0.20;;;15.70;90.50;;;;;;6148094;29;20310;-78
2023/03/24 14:02:24;;;;;;;1.73;0.55;;;15.70;90.90;;;;;;6114954;29;20043;-78
2023/03/24 14:05:42;;;;;;;0.77;0.30;;;15.70;90.40;;;;;;6126132;29;20050;-79
2023/03/24 14:09:04;;;;;;;1.33;0.32;;;15.70;90.60;;;;;;6147718;29;20053;-80
2023/03/24 14:12:20;;;;;;;0.77;0.40;;;15.60;90.60;;;;;;6149376;29;20054;-80
2023/03/24 14:15:26;;;;;;;1.67;0.40;;;15.70;90.60;;;;;;6149569;29;20134;-79
2023/03/24 14:18:42;;;;;;;0.77;0.35;;;15.70;90.80;;;;;;6148832;29;20417;-78
2023/03/24 14:21:53;;;;;;;1.52;0.47;;;15.70;90.90;;;;;;6148553;28;20124;-79
2023/03/24 14:25:04;;;;;;;0.80;0.30;;;15.80;91.10;;;;;;6150919;29;20067;-79
2023/03/24 14:28:23;;;;;;;1.02;0.40;;;15.70;91.30;;;;;;6163305;29;20345;-80
2023/03/24 14:31:29;;;;;;;1.30;0.30;;;15.70;91.40;;;;;;6154193;28;20079;-80
2023/03/24 14:34:36;;;;;;;1.58;0.30;;;15.60;91.70;;;;;;6152800;29;20507;-79
2023/03/24 14:37:50;;;;;;;0.60;0.30;;;15.60;91.90;;;;;;6132341;29;20126;-77
2023/03/24 14:40:58;;;;;;;1.20;0.25;;;15.40;92.10;;;;;;6125100;29;20055;-77
2023/03/24 14:44:01;;;;;;;0.63;0.40;;;15.30;92.50;;;;;;6153220;29;20386;-79
2023/03/24 14:47:03;;;;;;;1.05;0.40;;;15.20;92.50;;;;;;6148058;29;20062;-78
2023/03/24 14:50:19;;;;;;;1.60;0.52;;;15.20;93.00;;;;;;6132139;29;20051;-80
2023/03/24 14:53:23;;;;;;;6.43;3.35;;;15.20;92.90;;;;;;6129221;29;20058;-78
2023/03/24 14:56:31;;;;;;;0.90;0.45;;;15.30;92.70;;;;;;6141490;29;20841;-80
2023/03/24 14:59:41;;;;;;;4.13;1.42;;;15.10;92.60;;;;;;6151208;29;20058;-78
2023/03/24 15:02:46;;;;;;;1.67;0.60;;;15.20;92.60;;;;;;6151932;29;20047;-77
2023/03/24 15:05:50;;;;;;;1.17;0.40;;;15.20;92.70;;;;;;6152735;29;20105;-78
2023/03/24 15:08:53;;;;;;;;;;;15.20;92.70;;;;;;6154771;29;20059;-79
2023/03/24 15:11:59;;;;;;;0.60;0.30;;;15.20;92.80;;;;;;6150574;28;20422;-78
2023/03/24 15:15:02;;;;;;;1.92;0.30;;;15.20;92.80;;;;;;6151072;29;20047;-79
2023/03/24 15:18:04;;;;;;;1.88;0.40;;;15.10;93.00;;;;;;6153899;29;20540;-80
2023/03/24 15:21:22;;;;;;;1.17;0.40;;;15.10;93.00;;;;;;6155273;29;20051;-79
2023/03/24 15:24:32;;;;;;;1.30;0.50;;;15.00;92.90;;;;;;6144951;29;20070;-79
2023/03/24 15:27:34;;;;;;;1.75;0.45;;;15.00;92.90;;;;;;6137876;29;20047;-79
2023/03/24 15:30:36;;;;;;;1.70;0.65;;;14.90;93.00;;;;;;6148403;28;20055;-77
2023/03/24 15:33:42;;;;;;;1.20;0.40;;;14.80;93.30;;;;;;6150079;28;20058;-77
2023/03/24 15:36:49;;;;;;;0.93;0.45;;;14.80;93.20;;;;;;6143406;29;20194;-79
2023/03/24 15:39:54;;;;;;;1.67;0.50;;;14.70;93.20;;;;;;6139437;29;20055;-80
2023/03/24 15:42:59;;;;;;;2.45;0.70;;;14.80;93.10;;;;;;6152076;29;20055;-77
2023/03/24 15:46:01;;;;;;;2.33;0.95;;;14.80;93.20;;;;;;6153386;29;20082;-79
2023/03/24 15:49:03;;;;;;;3.20;0.82;;;14.70;93.20;;;;;;6153196;29;20055;-76
2023/03/24 15:52:30;;;;;;;2.30;0.70;;;14.60;93.30;;;;;;6159636;29;20051;-79
2023/03/24 15:55:34;;;;;;;1.25;0.43;;;14.60;93.10;;;;;;6159545;29;20620;-80
2023/03/24 15:58:48;;;;;;;1.60;0.57;;;14.60;93.10;;;;;;6160501;29;20059;-80
2023/03/24 16:01:50;;;;;;;1.30;0.60;;;14.60;93.20;;;;;;6158554;29;20051;-79
2023/03/24 16:04:57;;;;;;;1.02;0.47;;;14.50;93.10;;;;;;6159841;29;20185;-78
2023/03/24 16:08:03;;;;;;;1.75;0.57;;;14.50;93.20;;;;;;6150905;29;20087;-78
2023/03/24 16:11:09;;;;;;;1.10;0.50;;;14.50;93.10;;;;;;6150506;29;20074;-79
2023/03/24 16:14:22;;;;;;;1.52;0.60;;;14.40;92.90;;;;;;6150769;29;20055;-77
2023/03/24 16:17:24;;;;;;;0.88;0.45;;;14.30;93.10;;;;;;6148202;29;20047;-76
2023/03/24 16:20:26;;;;;;;2.03;0.80;;;14.30;93.20;;;;;;6151870;29;20051;-77
2023/03/24 16:23:30;;;;;;;5.78;0.80;;;14.30;93.30;;;;;;6128032;29;20052;-79
2023/03/24 16:26:33;;;;;;;3.30;1.10;;;14.20;93.60;;;;;;6145056;29;20055;-78
2023/03/24 16:29:35;;;;;;;3.08;1.02;;;14.30;93.80;;;;;;6138830;29;20051;-79
2023/03/24 16:32:37;;;;;;;2.30;0.70;;;14.30;93.70;;;;;;6146137;28;20058;-80
2023/03/24 16:35:39;;;;;;;2.03;0.60;;;14.30;93.60;;;;;;6149981;29;20054;-80
2023/03/24 16:38:43;;;;;;;1.95;0.70;;;14.20;93.90;;;;;;6127650;29;20043;-81
2023/03/24 16:41:46;;;;;;;2.45;0.75;;;14.30;94.30;;;;;;6127606;29;20501;-77
2023/03/24 16:44:48;;;;;;;2.67;0.90;;;14.40;93.80;;;;;;6130841;29;20044;-78
2023/03/24 16:47:50;;;;;;;1.33;0.63;;;14.50;93.60;;;;;;6151395;29;20053;-79
2023/03/24 16:50:53;;;;;;;2.45;0.90;;;14.50;93.50;;;;;;6144826;29;20055;-79
2023/03/24 16:53:57;;;;;;;8.98;4.85;;;14.40;93.40;;;;;;6148010;29;20062;-80
2023/03/24 16:56:59;;;;;;;;;;;14.40;93.60;;;;;;6140025;29;20816;-79
2023/03/24 17:00:08;;;;;;;2.55;1.00;;;14.40;93.10;;;;;;6134097;29;19961;-83
2023/03/24 17:03:13;;;;;;;1.98;0.93;;;14.30;93.10;;;;;;6142428;29;20043;-80
2023/03/24 17:06:17;;;;;;;1.98;0.70;;;14.20;93.30;;;;;;6144975;29;20055;-77
2023/03/24 17:09:21;;;;;;;1.80;0.88;;;14.30;93.10;;;;;;6148126;29;20043;-80
2023/03/24 17:12:23;;;;;;;1.77;0.90;;;14.40;93.00;;;;;;6147384;29;20055;-81
2023/03/24 17:15:27;;;;;;;2.17;0.80;;;15.00;92.40;;;;;;6138333;29;20043;-79
2023/03/24 17:18:29;;;;;;;2.95;0.80;;;14.90;91.80;;;;;;6147815;29;20056;-81
2023/03/24 17:21:34;;;;;;;2.63;0.90;;;15.00;91.80;;;;;;6145779;29;20090;-79
2023/03/24 17:24:40;;;;;;;2.47;0.80;;;15.20;91.40;;;;;;6154944;29;20500;-81
2023/03/24 17:27:44;;;;;;;2.28;0.70;;;15.40;91.10;;;;;;6139966;29;20051;-80
2023/03/24 17:30:47;;;;;;;1.90;0.80;;;15.20;91.20;;;;;;6147829;28;20047;-79
2023/03/24 17:33:51;;;;;;;2.30;0.90;;;15.10;91.40;;;;;;6149213;29;20785;-80
2023/03/24 17:36:54;;;;;;;3.33;0.93;;;14.90;91.70;;;;;;6140909;29;20054;-78
2023/03/24 17:40:00;;;;;;;1.95;0.80;;;14.60;92.20;;;;;;6129673;29;20207;-80
2023/03/24 17:43:04;;;;;;;2.88;1.10;;;14.60;92.20;;;;;;6135815;29;20051;-80
2023/03/24 17:46:06;;;;;;;2.92;0.95;;;14.40;92.30;;;;;;6146940;29;20050;-76
2023/03/24 17:49:08;;;;;;;2.08;0.90;;;14.30;92.30;;;;;;6138856;29;20055;-78
2023/03/24 17:52:10;;;;;;;3.15;0.93;;;14.20;92.50;;;;;;6126986;29;20062;-77
2023/03/24 17:55:16;;;;;;;2.55;1.05;;;14.10;92.70;;;;;;6127601;29;20517;-81
2023/03/24 17:58:18;;;;;;;3.85;1.10;;;14.00;92.80;;;;;;6129206;29;20062;-76
2023/03/24 18:01:20;;;;;;;3.15;1.20;;;14.00;92.70;;;;;;6143054;29;20101;-78
2023/03/24 18:04:22;;;;;;;2.95;1.10;;;13.90;92.80;;;;;;6152923;29;20054;-79
2023/03/24 18:07:24;;;;;;;2.80;1.10;;;13.90;92.80;;;;;;6141599;29;20196;-78
2023/03/24 18:10:27;;;;;;;3.00;0.98;;;13.80;93.10;;;;;;6130893;29;20496;-80
2023/03/24 18:13:29;;;;;;;2.88;1.10;;;13.70;92.90;;;;;;6148467;29;20051;-76
2023/03/24 18:16:34;;;;;;;3.70;1.30;;;13.70;92.90;;;;;;6148826;29;20086;-79
2023/03/24 18:19:36;;;;;;;2.75;1.20;;;13.50;93.00;;;;;;6148793;29;20051;-77
2023/03/24 18:22:39;;;;;;;3.88;1.35;;;13.60;93.00;;;;;;6146643;29;20529;-78
2023/03/24 18:25:42;;;;;;;3.55;1.17;;;13.50;93.00;;;;;;6148405;29;20051;-80
2023/03/24 18:28:45;;;;;;;3.70;1.42;;;13.40;93.00;;;;;;6148317;29;20054;-79
2023/03/24 18:31:47;;;;;;;2.73;1.20;;;13.40;93.10;;;;;;6139731;28;20059;-81
2023/03/24 18:34:49;;;;;;;5.07;1.50;;;13.40;93.10;;;;;;6145778;29;20047;-80
2023/03/24 18:37:51;;;;;;;3.90;1.20;;;13.40;93.10;;;;;;6149670;29;20055;-80
2023/03/24 18:41:02;;;;;;;3.65;1.52;;;13.40;93.00;;;;;;6145582;29;20130;-78
2023/03/24 18:44:08;;;;;;;4.03;1.17;;;13.30;93.10;;;;;;6150255;29;20062;-78
2023/03/24 18:47:10;;;;;;;3.33;1.40;;;13.20;93.20;;;;;;6151976;29;20055;-78
2023/03/24 18:50:12;;;;;;;8.07;4.35;;;13.30;93.20;;;;;;6151564;29;20059;-79
2023/03/24 18:53:14;;;;;;;3.58;1.35;;;13.20;93.10;;;;;;6149728;29;20047;-78
2023/03/24 18:56:18;;;;;;;3.08;1.30;;;13.20;93.20;;;;;;6133903;29;20055;-80
2023/03/24 18:59:20;;;;;;;3.38;1.33;;;13.10;93.30;;;;;;6133385;29;20043;-79
2023/03/24 19:02:22;;;;;;;2.40;1.15;;;13.10;93.30;;;;;;6155665;29;20402;-80
2023/03/24 19:05:23;;;;;;;4.50;1.50;;;13.10;93.40;;;;;;6155378;29;20047;-79
2023/03/24 19:08:25;;;;;;;4.13;1.60;;;13.10;93.40;;;;;;6136477;29;20059;-80
2023/03/24 19:11:29;;;;;;;3.08;1.35;;;13.00;93.50;;;;;;6142111;29;20064;-78
2023/03/24 19:14:32;;;;;;;11.55;5.63;;;13.00;93.40;;;;;;6168612;29;20047;-78
2023/03/24 19:17:34;;;;;;;12.93;7.00;;;13.00;93.50;;;;;;6171976;29;20051;-78
2023/03/24 19:20:37;;;;;;;4.65;1.80;;;12.90;93.40;;;;;;6143188;29;20067;-79
2023/03/24 19:23:39;;;;;;;3.42;1.33;;;13.00;93.40;;;;;;6152395;29;20083;-79
2023/03/24 19:26:42;;;;;;;3.58;1.50;;;13.00;93.50;;;;;;6151752;29;20051;-79
2023/03/24 19:29:45;;;;;;;3.58;1.45;;;12.90;93.30;;;;;;6150325;29;20051;-79
2023/03/24 19:32:47;;;;;;;4.32;1.40;;;12.90;93.40;;;;;;6149167;28;20059;-78
2023/03/24 19:35:50;;;;;;;4.03;1.88;;;12.80;93.50;;;;;;6151322;29;20051;-80
2023/03/24 19:38:52;;;;;;;4.43;2.23;;;12.80;93.40;;;;;;6151755;29;20074;-77
2023/03/24 19:41:55;;;;;;;2.83;1.48;;;12.80;93.20;;;;;;6150729;29;20482;-79
2023/03/24 19:44:57;;;;;;;2.75;1.40;;;12.80;93.30;;;;;;6152912;28;20062;-77
2023/03/24 19:47:59;;;;;;;4.65;1.50;;;12.70;93.10;;;;;;6145840;28;20059;-78
2023/03/24 19:51:02;;;;;;;3.03;1.20;;;12.70;93.10;;;;;;6129022;29;20086;-76
2023/03/24 19:54:04;;;;;;;3.80;1.27;;;12.70;93.10;;;;;;6146448;29;20047;-78
2023/03/24 19:57:07;;;;;;;4.03;1.60;;;12.80;93.50;;;;;;6143095;29;20493;-78
2023/03/24 20:00:13;;;;;;;3.35;1.38;;;12.80;92.90;;;;;;6150153;29;20063;-72
2023/03/24 20:03:15;;;;;;;4.03;1.60;;;12.90;93.20;;;;;;6151719;29;20675;-72
2023/03/24 20:06:17;;;;;;;3.38;1.30;;;12.90;92.90;;;;;;6138499;29;20054;-76
2023/03/24 20:09:19;;;;;;;3.92;1.63;;;12.90;92.70;;;;;;6130616;29;20062;-78
2023/03/24 20:12:25;;;;;;;3.22;1.60;;;12.70;92.90;;;;;;6151825;29;20051;-77
2023/03/24 20:15:27;;;;;;;4.57;1.80;;;12.70;92.90;;;;;;6155650;29;20047;-78
2023/03/24 20:18:29;;;;;;;3.80;1.50;;;12.70;92.90;;;;;;6157659;29;20130;-77
2023/03/24 20:21:33;;;;;;;3.50;1.58;;;12.60;93.00;;;;;;6150871;29;20138;-79
2023/03/24 20:24:37;;;;;;;;;;;12.50;93.00;;;;;;6135781;29;20053;-77
2023/03/24 20:27:41;;;;;;;4.57;1.35;;;12.50;93.10;;;;;;6153642;29;19934;-77
2023/03/24 20:30:43;;;;;;;;;;;12.50;93.10;;;;;;6153630;28;20130;-79
2023/03/24 20:33:46;;;;;;;7.30;4.13;;;12.50;93.10;;;;;;6148529;29;19926;-79
2023/03/24 20:36:48;;;;;;;22.80;8.40;;;12.40;93.30;;;;;;6148707;29;20511;-79
2023/03/24 20:39:49;;;;;;;25.38;10.48;;;12.30;93.60;;;;;;6137421;29;20055;-77
2023/03/24 20:42:53;;;;;;;9.35;3.30;;;12.30;93.30;;;;;;6146861;29;20055;-78
2023/03/24 20:45:55;;;;;;;4.55;1.60;;;12.30;93.30;;;;;;6150325;29;20504;-78
2023/03/24 20:48:57;;;;;;;4.25;1.50;;;12.30;93.30;;;;;;6151583;29;20074;-79
2023/03/24 20:51:59;;;;;;;3.53;1.30;;;12.30;93.30;;;;;;6151141;29;20059;-77
2023/03/24 20:55:05;;;;;;;3.67;1.40;;;12.30;93.30;;;;;;6149717;29;20219;-79
2023/03/24 20:58:09;;;;;;;3.45;1.30;;;12.30;93.30;;;;;;6148823;29;20051;-83
2023/03/24 21:01:20;;;;;;;5.65;1.60;;;12.30;93.30;;;;;;6149478;28;20134;-80
2023/03/24 21:04:22;;;;;;;4.30;1.55;;;12.40;93.30;;;;;;6149192;29;20055;-80
2023/03/24 21:07:24;;;;;;;3.75;1.38;;;12.30;93.00;;;;;;6144539;29;20059;-80
2023/03/24 21:10:26;;;;;;;4.32;1.60;;;12.30;92.90;;;;;;6140569;29;20680;-81
2023/03/24 21:13:29;;;;;;;3.92;1.35;;;12.30;92.80;;;;;;6125138;29;20048;-77
2023/03/24 21:16:36;;;;;;;4.68;1.50;;;12.30;92.70;;;;;;6125702;29;20063;-76
2023/03/24 21:19:38;;;;;;;3.40;1.40;;;12.30;92.60;;;;;;6125523;29;20059;-76
2023/03/24 21:22:51;;;;;;;3.13;1.27;;;12.30;92.90;;;;;;6134071;29;20047;-77
2023/03/24 21:25:53;;;;;;;3.58;1.35;;;12.20;92.60;;;;;;6148288;29;20055;-77
2023/03/24 21:28:56;;;;;;;3.97;1.52;;;12.20;92.60;;;;;;6148726;29;20058;-76
2023/03/24 21:31:58;;;;;;;3.17;1.30;;;12.10;92.60;;;;;;6146275;28;20417;-76
2023/03/24 21:35:01;;;;;;;3.55;1.23;;;12.10;92.70;;;;;;6148303;29;20066;-77
2023/03/24 21:38:04;;;;;;;3.20;1.00;;;12.00;92.60;;;;;;6133557;29;20054;-76
2023/03/24 21:41:07;;;;;;;2.65;1.10;;;12.00;92.60;;;;;;6136397;29;20074;-77
2023/03/24 21:44:10;;;;;;;2.85;1.13;;;12.00;92.60;;;;;;6144536;29;20401;-76
2023/03/24 21:47:13;;;;;;;5.80;1.35;;;12.00;92.50;;;;;;6144750;29;20063;-77
2023/03/24 21:50:21;;;;;;;4.03;1.27;;;12.10;92.50;;;;;;6148143;29;20062;-78
2023/03/24 21:53:24;;;;;;;4.97;1.40;;;12.10;92.50;;;;;;6148375;29;20055;-77
2023/03/24 21:56:26;;;;;;;3.50;1.15;;;12.00;92.50;;;;;;6146909;29;20499;-77
2023/03/24 21:59:30;;;;;;;4.47;1.38;;;12.00;92.60;;;;;;6147108;29;20104;-77
2023/03/24 22:02:33;;;;;;;;;;;12.00;92.70;;;;;;6148687;29;20055;-76
2023/03/24 22:05:37;;;;;;;;;;;11.90;93.10;;;;;;6137047;29;19927;-77
2023/03/24 22:08:42;;;;;;;4.15;1.40;;;11.90;93.10;;;;;;6124641;29;20252;-78
2023/03/24 22:11:44;;;;;;;5.13;1.40;;;11.90;93.50;;;;;;6139235;29;20051;-79
2023/03/24 22:14:47;;;;;;;4.20;1.10;;;11.80;93.90;;;;;;6148269;29;20055;-79
2023/03/24 22:17:49;;;;;;;2.72;1.00;;;11.90;93.90;;;;;;6137478;29;20525;-78
2023/03/24 22:20:56;;;;;;;3.58;1.13;;;11.80;94.00;;;;;;6124478;29;20187;-77
2023/03/24 22:23:58;;;;;;;4.32;1.30;;;11.80;94.20;;;;;;6134999;29;20091;-79
2023/03/24 22:27:01;;;;;;;3.58;1.10;;;11.80;94.20;;;;;;6145798;29;20062;-78
2023/03/24 22:30:05;;;;;;;11.25;5.28;;;11.70;94.30;;;;;;6147910;29;20051;-77
2023/03/24 22:33:07;;;;;;;3.35;1.20;;;11.70;94.40;;;;;;6139592;28;20064;-79
2023/03/24 22:36:10;;;;;;;4.50;1.00;;;11.70;94.50;;;;;;6147757;29;20051;-77
2023/03/24 22:39:13;;;;;;;2.97;1.13;;;11.70;94.40;;;;;;6149788;29;20054;-78
2023/03/24 22:42:15;;;;;;;2.97;1.00;;;11.70;94.40;;;;;;6140785;29;20068;-76
2023/03/24 22:45:19;;;;;;;3.75;1.23;;;11.70;94.50;;;;;;6130023;29;20402;-77
2023/03/24 22:48:21;;;;;;;2.78;1.00;;;11.70;94.50;;;;;;6132432;29;20057;-77
2023/03/24 22:51:23;;;;;;;3.75;1.10;;;11.70;94.30;;;;;;6155572;29;20054;-79
2023/03/24 22:54:25;;;;;;;3.70;0.90;;;11.70;94.20;;;;;;6156009;29;20043;-79
2023/03/24 22:57:27;;;;;;;3.60;1.20;;;11.70;94.00;;;;;;6154569;29;20050;-77
